Terminal Aerodrome Forecast
Issued by NWS El Paso, TX

Home | Current Version | Previous Version | Text Only | Print | Product List | Glossary On
Versions: 1 2 3 4 5 6 7 8 9 10 11 12 13 14 15 16
000
FTUS44 KEPZ 230200 AAA
TAFELP
TAF AMD
KELP 230233Z 2303/2324 13008KT P6SM -SHRA BKN080 BKN110 OVC180
     FM230800 10010KT P6SM SCT080 BKN120 OVC200
     FM231200 06007KT P6SM FEW100 SCT150 BKN220
     FM231800 11010KT P6SM FEW080 SCT150=

USA.gov is the U.S. government's official web portal to all federal, state and local government web resources and services.